sensor_id;sensor_type;location;lat;lon;timestamp;temperature;humidity
78345;DHT22;67620;51.134;6.548;2024-01-06T00:01:36;6.10;98.50
78345;DHT22;67620;51.134;6.548;2024-01-06T00:04:01;6.10;98.70
78345;DHT22;67620;51.134;6.548;2024-01-06T00:06:27;6.10;98.90
78345;DHT22;67620;51.134;6.548;2024-01-06T00:08:52;6.10;98.90
78345;DHT22;67620;51.134;6.548;2024-01-06T00:11:20;6.10;99.00
78345;DHT22;67620;51.134;6.548;2024-01-06T00:13:46;6.10;99.20
78345;DHT22;67620;51.134;6.548;2024-01-06T00:16:12;6.10;99.10
78345;DHT22;67620;51.134;6.548;2024-01-06T00:18:38;6.10;99.10
78345;DHT22;67620;51.134;6.548;2024-01-06T00:21:04;6.00;99.00
78345;DHT22;67620;51.134;6.548;2024-01-06T00:23:29;6.10;99.00
78345;DHT22;67620;51.134;6.548;2024-01-06T00:25:55;6.10;98.80
78345;DHT22;67620;51.134;6.548;2024-01-06T00:28:21;6.10;98.60
78345;DHT22;67620;51.134;6.548;2024-01-06T00:30:46;6.10;98.60
78345;DHT22;67620;51.134;6.548;2024-01-06T00:33:12;6.10;98.50
78345;DHT22;67620;51.134;6.548;2024-01-06T00:35:38;6.10;98.50
78345;DHT22;67620;51.134;6.548;2024-01-06T00:38:03;6.10;98.50
78345;DHT22;67620;51.134;6.548;2024-01-06T00:40:29;6.10;98.50
78345;DHT22;67620;51.134;6.548;2024-01-06T00:42:54;6.10;98.40
78345;DHT22;67620;51.134;6.548;2024-01-06T00:45:20;6.10;98.40
78345;DHT22;67620;51.134;6.548;2024-01-06T00:47:46;6.20;98.20
78345;DHT22;67620;51.134;6.548;2024-01-06T00:50:11;6.20;98.10
78345;DHT22;67620;51.134;6.548;2024-01-06T00:52:37;6.20;98.10
78345;DHT22;67620;51.134;6.548;2024-01-06T00:55:03;6.20;98.00
78345;DHT22;67620;51.134;6.548;2024-01-06T00:57:28;6.20;98.00
78345;DHT22;67620;51.134;6.548;2024-01-06T00:59:54;6.30;97.80
78345;DHT22;67620;51.134;6.548;2024-01-06T01:02:19;6.30;97.50
78345;DHT22;67620;51.134;6.548;2024-01-06T01:04:45;6.30;97.20
78345;DHT22;67620;51.134;6.548;2024-01-06T01:07:10;6.30;97.20
78345;DHT22;67620;51.134;6.548;2024-01-06T01:09:35;6.30;97.90
78345;DHT22;67620;51.134;6.548;2024-01-06T01:12:01;6.30;97.80
78345;DHT22;67620;51.134;6.548;2024-01-06T01:14:27;6.30;98.00
78345;DHT22;67620;51.134;6.548;2024-01-06T01:16:52;6.40;98.00
78345;DHT22;67620;51.134;6.548;2024-01-06T01:19:17;6.30;98.00
78345;DHT22;67620;51.134;6.548;2024-01-06T01:21:43;6.30;97.80
78345;DHT22;67620;51.134;6.548;2024-01-06T01:24:08;6.30;97.70
78345;DHT22;67620;51.134;6.548;2024-01-06T01:26:34;6.40;97.40
78345;DHT22;67620;51.134;6.548;2024-01-06T01:28:59;6.30;97.30
78345;DHT22;67620;51.134;6.548;2024-01-06T01:31:25;6.40;97.30
78345;DHT22;67620;51.134;6.548;2024-01-06T01:33:50;6.40;97.10
78345;DHT22;67620;51.134;6.548;2024-01-06T01:36:16;6.30;97.00
78345;DHT22;67620;51.134;6.548;2024-01-06T01:38:43;6.30;97.10
78345;DHT22;67620;51.134;6.548;2024-01-06T01:41:09;6.30;97.00
78345;DHT22;67620;51.134;6.548;2024-01-06T01:43:34;6.30;97.10
78345;DHT22;67620;51.134;6.548;2024-01-06T01:46:00;6.30;97.10
78345;DHT22;67620;51.134;6.548;2024-01-06T01:48:26;6.30;97.20
78345;DHT22;67620;51.134;6.548;2024-01-06T01:50:53;6.30;97.30
78345;DHT22;67620;51.134;6.548;2024-01-06T01:53:19;6.20;97.40
78345;DHT22;67620;51.134;6.548;2024-01-06T01:55:46;6.20;97.50
78345;DHT22;67620;51.134;6.548;2024-01-06T01:58:12;6.20;97.50
78345;DHT22;67620;51.134;6.548;2024-01-06T02:00:39;6.20;97.50
78345;DHT22;67620;51.134;6.548;2024-01-06T02:03:05;6.20;97.70
78345;DHT22;67620;51.134;6.548;2024-01-06T02:05:31;6.30;97.70
78345;DHT22;67620;51.134;6.548;2024-01-06T02:07:56;6.30;97.70
78345;DHT22;67620;51.134;6.548;2024-01-06T02:10:22;6.30;97.50
78345;DHT22;67620;51.134;6.548;2024-01-06T02:12:48;6.30;97.40
78345;DHT22;67620;51.134;6.548;2024-01-06T02:15:14;6.30;97.40
78345;DHT22;67620;51.134;6.548;2024-01-06T02:17:39;6.30;97.50
78345;DHT22;67620;51.134;6.548;2024-01-06T02:20:07;6.30;97.60
78345;DHT22;67620;51.134;6.548;2024-01-06T02:22:34;6.40;97.70
78345;DHT22;67620;51.134;6.548;2024-01-06T02:25:00;6.30;97.70
78345;DHT22;67620;51.134;6.548;2024-01-06T02:27:26;6.40;97.50
78345;DHT22;67620;51.134;6.548;2024-01-06T02:29:51;6.40;97.30
78345;DHT22;67620;51.134;6.548;2024-01-06T02:32:17;6.40;97.20
78345;DHT22;67620;51.134;6.548;2024-01-06T02:34:42;6.40;97.30
78345;DHT22;67620;51.134;6.548;2024-01-06T02:37:08;6.40;97.30
78345;DHT22;67620;51.134;6.548;2024-01-06T02:39:33;6.40;97.10
78345;DHT22;67620;51.134;6.548;2024-01-06T02:41:59;6.40;97.10
78345;DHT22;67620;51.134;6.548;2024-01-06T02:44:24;6.40;97.00
78345;DHT22;67620;51.134;6.548;2024-01-06T02:46:50;6.40;97.10
78345;DHT22;67620;51.134;6.548;2024-01-06T02:49:15;6.40;97.20
78345;DHT22;67620;51.134;6.548;2024-01-06T02:51:41;6.30;97.30
78345;DHT22;67620;51.134;6.548;2024-01-06T02:54:06;6.30;97.40
78345;DHT22;67620;51.134;6.548;2024-01-06T02:56:31;6.30;97.40
78345;DHT22;67620;51.134;6.548;2024-01-06T02:58:57;6.30;97.30
78345;DHT22;67620;51.134;6.548;2024-01-06T03:01:22;6.30;97.20
78345;DHT22;67620;51.134;6.548;2024-01-06T03:03:48;6.30;97.10
78345;DHT22;67620;51.134;6.548;2024-01-06T03:06:13;6.30;97.20
78345;DHT22;67620;51.134;6.548;2024-01-06T03:08:39;6.30;97.00
78345;DHT22;67620;51.134;6.548;2024-01-06T03:11:04;6.30;96.90
78345;DHT22;67620;51.134;6.548;2024-01-06T03:13:31;6.40;96.70
78345;DHT22;67620;51.134;6.548;2024-01-06T03:15:56;6.40;96.50
78345;DHT22;67620;51.134;6.548;2024-01-06T03:18:22;6.40;96.40
78345;DHT22;67620;51.134;6.548;2024-01-06T03:20:47;6.40;96.30
78345;DHT22;67620;51.134;6.548;2024-01-06T03:23:12;6.40;96.10
78345;DHT22;67620;51.134;6.548;2024-01-06T03:25:38;6.50;95.90
78345;DHT22;67620;51.134;6.548;2024-01-06T03:28:04;6.50;95.80
78345;DHT22;67620;51.134;6.548;2024-01-06T03:30:29;6.50;95.70
78345;DHT22;67620;51.134;6.548;2024-01-06T03:32:55;6.50;95.90
78345;DHT22;67620;51.134;6.548;2024-01-06T03:35:20;6.60;96.30
78345;DHT22;67620;51.134;6.548;2024-01-06T03:37:46;6.60;96.70
78345;DHT22;67620;51.134;6.548;2024-01-06T03:40:12;6.60;96.20
78345;DHT22;67620;51.134;6.548;2024-01-06T03:42:37;6.50;96.90
78345;DHT22;67620;51.134;6.548;2024-01-06T03:45:03;6.60;96.90
78345;DHT22;67620;51.134;6.548;2024-01-06T03:47:29;6.60;96.80
78345;DHT22;67620;51.134;6.548;2024-01-06T03:49:54;6.60;97.10
78345;DHT22;67620;51.134;6.548;2024-01-06T03:52:20;6.60;97.60
78345;DHT22;67620;51.134;6.548;2024-01-06T03:54:45;6.60;98.10
78345;DHT22;67620;51.134;6.548;2024-01-06T03:57:11;6.50;98.50
78345;DHT22;67620;51.134;6.548;2024-01-06T03:59:36;6.40;98.80
78345;DHT22;67620;51.134;6.548;2024-01-06T04:02:02;6.40;98.90
78345;DHT22;67620;51.134;6.548;2024-01-06T04:04:27;6.40;98.80
78345;DHT22;67620;51.134;6.548;2024-01-06T04:06:53;5.90;97.00
78345;DHT22;67620;51.134;6.548;2024-01-06T04:09:18;5.60;98.10
78345;DHT22;67620;51.134;6.548;2024-01-06T04:11:44;5.60;98.50
78345;DHT22;67620;51.134;6.548;2024-01-06T04:14:09;5.40;98.00
78345;DHT22;67620;51.134;6.548;2024-01-06T04:16:35;5.30;98.30
78345;DHT22;67620;51.134;6.548;2024-01-06T04:19:00;5.30;99.10
78345;DHT22;67620;51.134;6.548;2024-01-06T04:21:26;5.30;99.10
78345;DHT22;67620;51.134;6.548;2024-01-06T04:23:51;5.20;99.10
78345;DHT22;67620;51.134;6.548;2024-01-06T04:26:17;5.10;98.70
78345;DHT22;67620;51.134;6.548;2024-01-06T04:28:42;5.10;98.90
78345;DHT22;67620;51.134;6.548;2024-01-06T04:31:07;5.20;99.20
78345;DHT22;67620;51.134;6.548;2024-01-06T04:33:33;5.20;99.10
78345;DHT22;67620;51.134;6.548;2024-01-06T04:35:58;5.30;99.40
78345;DHT22;67620;51.134;6.548;2024-01-06T04:38:24;5.30;99.30
78345;DHT22;67620;51.134;6.548;2024-01-06T04:40:50;5.30;99.10
78345;DHT22;67620;51.134;6.548;2024-01-06T04:43:15;5.20;99.00
78345;DHT22;67620;51.134;6.548;2024-01-06T04:45:41;5.20;98.80
78345;DHT22;67620;51.134;6.548;2024-01-06T04:48:06;5.30;99.10
78345;DHT22;67620;51.134;6.548;2024-01-06T04:50:32;5.20;99.10
78345;DHT22;67620;51.134;6.548;2024-01-06T04:52:57;5.20;98.90
78345;DHT22;67620;51.134;6.548;2024-01-06T04:55:23;5.20;99.10
78345;DHT22;67620;51.134;6.548;2024-01-06T04:57:49;5.20;99.20
78345;DHT22;67620;51.134;6.548;2024-01-06T05:00:15;5.20;99.20
78345;DHT22;67620;51.134;6.548;2024-01-06T05:02:40;5.20;99.10
78345;DHT22;67620;51.134;6.548;2024-01-06T05:05:06;5.20;99.00
78345;DHT22;67620;51.134;6.548;2024-01-06T05:07:32;5.20;99.10
78345;DHT22;67620;51.134;6.548;2024-01-06T05:09:57;5.20;98.80
78345;DHT22;67620;51.134;6.548;2024-01-06T05:12:23;5.20;98.70
78345;DHT22;67620;51.134;6.548;2024-01-06T05:14:48;5.20;98.60
78345;DHT22;67620;51.134;6.548;2024-01-06T05:17:14;5.20;98.30
78345;DHT22;67620;51.134;6.548;2024-01-06T05:19:39;5.20;98.40
78345;DHT22;67620;51.134;6.548;2024-01-06T05:22:05;5.20;98.20
78345;DHT22;67620;51.134;6.548;2024-01-06T05:24:30;5.20;98.00
78345;DHT22;67620;51.134;6.548;2024-01-06T05:26:56;5.20;98.20
78345;DHT22;67620;51.134;6.548;2024-01-06T05:29:21;5.30;98.40
78345;DHT22;67620;51.134;6.548;2024-01-06T05:31:47;5.40;98.50
78345;DHT22;67620;51.134;6.548;2024-01-06T05:34:14;5.40;98.50
78345;DHT22;67620;51.134;6.548;2024-01-06T05:36:40;5.40;98.30
78345;DHT22;67620;51.134;6.548;2024-01-06T05:39:05;5.40;98.40
78345;DHT22;67620;51.134;6.548;2024-01-06T05:41:40;5.40;98.30
78345;DHT22;67620;51.134;6.548;2024-01-06T05:44:06;5.30;97.90
78345;DHT22;67620;51.134;6.548;2024-01-06T05:46:31;5.30;97.70
78345;DHT22;67620;51.134;6.548;2024-01-06T05:48:57;5.30;97.50
78345;DHT22;67620;51.134;6.548;2024-01-06T05:51:23;5.20;95.80
78345;DHT22;67620;51.134;6.548;2024-01-06T05:53:48;5.20;96.20
78345;DHT22;67620;51.134;6.548;2024-01-06T05:56:26;5.20;95.70
78345;DHT22;67620;51.134;6.548;2024-01-06T05:58:53;5.20;96.60
78345;DHT22;67620;51.134;6.548;2024-01-06T06:01:19;5.20;96.20
78345;DHT22;67620;51.134;6.548;2024-01-06T06:03:46;5.30;96.80
78345;DHT22;67620;51.134;6.548;2024-01-06T06:06:12;5.30;96.50
78345;DHT22;67620;51.134;6.548;2024-01-06T06:08:37;5.30;96.40
78345;DHT22;67620;51.134;6.548;2024-01-06T06:11:03;5.30;96.70
78345;DHT22;67620;51.134;6.548;2024-01-06T06:13:42;5.30;96.70
78345;DHT22;67620;51.134;6.548;2024-01-06T06:16:11;5.50;97.10
78345;DHT22;67620;51.134;6.548;2024-01-06T06:18:40;5.40;96.30
78345;DHT22;67620;51.134;6.548;2024-01-06T06:21:06;5.40;96.50
78345;DHT22;67620;51.134;6.548;2024-01-06T06:23:32;5.40;96.30
78345;DHT22;67620;51.134;6.548;2024-01-06T06:25:57;5.30;94.40
78345;DHT22;67620;51.134;6.548;2024-01-06T06:28:23;5.20;95.00
78345;DHT22;67620;51.134;6.548;2024-01-06T06:30:48;5.20;94.10
78345;DHT22;67620;51.134;6.548;2024-01-06T06:33:14;5.20;94.10
78345;DHT22;67620;51.134;6.548;2024-01-06T06:35:40;5.20;93.80
78345;DHT22;67620;51.134;6.548;2024-01-06T06:38:06;5.20;93.60
78345;DHT22;67620;51.134;6.548;2024-01-06T06:40:31;5.20;92.90
78345;DHT22;67620;51.134;6.548;2024-01-06T06:42:57;5.20;91.50
78345;DHT22;67620;51.134;6.548;2024-01-06T06:45:22;5.20;92.20
78345;DHT22;67620;51.134;6.548;2024-01-06T06:47:51;5.20;91.40
78345;DHT22;67620;51.134;6.548;2024-01-06T06:50:17;5.20;91.50
78345;DHT22;67620;51.134;6.548;2024-01-06T06:52:43;5.20;91.60
78345;DHT22;67620;51.134;6.548;2024-01-06T06:55:09;5.20;90.90
78345;DHT22;67620;51.134;6.548;2024-01-06T06:57:34;5.10;90.90
78345;DHT22;67620;51.134;6.548;2024-01-06T07:00:00;5.10;90.60
78345;DHT22;67620;51.134;6.548;2024-01-06T07:02:27;5.10;90.10
78345;DHT22;67620;51.134;6.548;2024-01-06T07:04:52;5.10;90.90
78345;DHT22;67620;51.134;6.548;2024-01-06T07:07:19;5.20;89.80
78345;DHT22;67620;51.134;6.548;2024-01-06T07:09:44;5.20;90.50
78345;DHT22;67620;51.134;6.548;2024-01-06T07:12:10;5.20;89.70
78345;DHT22;67620;51.134;6.548;2024-01-06T07:14:35;5.30;90.40
78345;DHT22;67620;51.134;6.548;2024-01-06T07:17:02;5.20;90.90
78345;DHT22;67620;51.134;6.548;2024-01-06T07:19:29;5.20;90.40
78345;DHT22;67620;51.134;6.548;2024-01-06T07:21:55;5.20;89.50
78345;DHT22;67620;51.134;6.548;2024-01-06T07:24:20;5.20;89.40
78345;DHT22;67620;51.134;6.548;2024-01-06T07:26:46;5.20;90.20
78345;DHT22;67620;51.134;6.548;2024-01-06T07:29:11;5.20;89.20
78345;DHT22;67620;51.134;6.548;2024-01-06T07:31:37;5.20;89.70
78345;DHT22;67620;51.134;6.548;2024-01-06T07:34:02;5.10;89.40
78345;DHT22;67620;51.134;6.548;2024-01-06T07:36:28;5.10;90.40
78345;DHT22;67620;51.134;6.548;2024-01-06T07:38:53;5.20;89.90
78345;DHT22;67620;51.134;6.548;2024-01-06T07:41:21;5.10;89.50
78345;DHT22;67620;51.134;6.548;2024-01-06T07:43:46;5.20;89.60
78345;DHT22;67620;51.134;6.548;2024-01-06T07:46:12;5.10;90.00
78345;DHT22;67620;51.134;6.548;2024-01-06T07:48:37;5.10;89.40
78345;DHT22;67620;51.134;6.548;2024-01-06T07:51:03;5.10;90.50
78345;DHT22;67620;51.134;6.548;2024-01-06T07:53:29;5.20;90.00
78345;DHT22;67620;51.134;6.548;2024-01-06T07:55:54;5.20;89.90
78345;DHT22;67620;51.134;6.548;2024-01-06T07:58:20;5.20;89.20
78345;DHT22;67620;51.134;6.548;2024-01-06T08:00:47;5.30;89.20
78345;DHT22;67620;51.134;6.548;2024-01-06T08:03:12;5.30;89.40
78345;DHT22;67620;51.134;6.548;2024-01-06T08:05:38;5.30;89.50
78345;DHT22;67620;51.134;6.548;2024-01-06T08:08:04;5.30;88.80
78345;DHT22;67620;51.134;6.548;2024-01-06T08:10:30;5.40;88.30
78345;DHT22;67620;51.134;6.548;2024-01-06T08:12:56;5.50;90.20
78345;DHT22;67620;51.134;6.548;2024-01-06T08:15:22;5.50;88.60
78345;DHT22;67620;51.134;6.548;2024-01-06T08:17:47;5.50;87.70
78345;DHT22;67620;51.134;6.548;2024-01-06T08:20:13;5.50;87.90
78345;DHT22;67620;51.134;6.548;2024-01-06T08:22:38;5.50;87.60
78345;DHT22;67620;51.134;6.548;2024-01-06T08:25:05;5.50;88.30
78345;DHT22;67620;51.134;6.548;2024-01-06T08:27:34;5.60;89.40
78345;DHT22;67620;51.134;6.548;2024-01-06T08:30:00;5.60;87.40
78345;DHT22;67620;51.134;6.548;2024-01-06T08:32:25;5.40;87.20
78345;DHT22;67620;51.134;6.548;2024-01-06T08:34:51;5.50;88.10
78345;DHT22;67620;51.134;6.548;2024-01-06T08:37:16;5.50;88.00
78345;DHT22;67620;51.134;6.548;2024-01-06T08:39:42;5.60;88.10
78345;DHT22;67620;51.134;6.548;2024-01-06T08:42:07;5.40;87.90
78345;DHT22;67620;51.134;6.548;2024-01-06T08:44:33;5.60;89.00
78345;DHT22;67620;51.134;6.548;2024-01-06T08:46:58;5.70;87.20
78345;DHT22;67620;51.134;6.548;2024-01-06T08:49:24;5.80;88.60
78345;DHT22;67620;51.134;6.548;2024-01-06T08:51:49;5.90;87.80
78345;DHT22;67620;51.134;6.548;2024-01-06T08:54:15;5.80;87.40
78345;DHT22;67620;51.134;6.548;2024-01-06T08:56:41;5.60;86.90
78345;DHT22;67620;51.134;6.548;2024-01-06T08:59:06;5.60;87.00
78345;DHT22;67620;51.134;6.548;2024-01-06T09:01:32;5.70;88.60
78345;DHT22;67620;51.134;6.548;2024-01-06T09:03:59;5.80;87.70
78345;DHT22;67620;51.134;6.548;2024-01-06T09:06:25;5.80;87.30
78345;DHT22;67620;51.134;6.548;2024-01-06T09:08:50;6.00;87.80
78345;DHT22;67620;51.134;6.548;2024-01-06T09:11:16;5.90;86.00
78345;DHT22;67620;51.134;6.548;2024-01-06T09:13:41;5.90;85.40
78345;DHT22;67620;51.134;6.548;2024-01-06T09:16:07;6.00;86.20
78345;DHT22;67620;51.134;6.548;2024-01-06T09:18:32;6.00;86.40
78345;DHT22;67620;51.134;6.548;2024-01-06T09:20:58;6.10;86.40
78345;DHT22;67620;51.134;6.548;2024-01-06T09:23:23;6.10;85.90
78345;DHT22;67620;51.134;6.548;2024-01-06T09:25:49;6.10;85.40
78345;DHT22;67620;51.134;6.548;2024-01-06T09:28:16;6.10;86.40
78345;DHT22;67620;51.134;6.548;2024-01-06T09:30:42;6.00;85.30
78345;DHT22;67620;51.134;6.548;2024-01-06T09:33:07;6.10;86.20
78345;DHT22;67620;51.134;6.548;2024-01-06T09:35:36;6.20;85.70
78345;DHT22;67620;51.134;6.548;2024-01-06T09:38:01;6.10;85.00
78345;DHT22;67620;51.134;6.548;2024-01-06T09:40:27;6.20;84.80
78345;DHT22;67620;51.134;6.548;2024-01-06T09:42:56;6.20;85.10
78345;DHT22;67620;51.134;6.548;2024-01-06T09:45:22;6.30;84.70
78345;DHT22;67620;51.134;6.548;2024-01-06T09:47:50;6.50;84.60
78345;DHT22;67620;51.134;6.548;2024-01-06T09:50:18;6.50;83.90
78345;DHT22;67620;51.134;6.548;2024-01-06T09:52:46;6.50;84.60
78345;DHT22;67620;51.134;6.548;2024-01-06T09:55:23;6.50;84.80
78345;DHT22;67620;51.134;6.548;2024-01-06T09:57:50;6.30;85.20
78345;DHT22;67620;51.134;6.548;2024-01-06T10:00:16;6.20;85.30
78345;DHT22;67620;51.134;6.548;2024-01-06T10:02:43;6.20;85.40
78345;DHT22;67620;51.134;6.548;2024-01-06T10:05:09;6.20;86.90
78345;DHT22;67620;51.134;6.548;2024-01-06T10:07:35;6.10;86.90
78345;DHT22;67620;51.134;6.548;2024-01-06T10:10:00;6.00;87.50
78345;DHT22;67620;51.134;6.548;2024-01-06T10:12:26;5.90;87.30
78345;DHT22;67620;51.134;6.548;2024-01-06T10:14:53;5.90;88.70
78345;DHT22;67620;51.134;6.548;2024-01-06T10:17:19;5.80;88.30
78345;DHT22;67620;51.134;6.548;2024-01-06T10:19:47;5.80;88.90
78345;DHT22;67620;51.134;6.548;2024-01-06T10:22:14;5.80;89.80
78345;DHT22;67620;51.134;6.548;2024-01-06T10:24:40;5.70;90.00
78345;DHT22;67620;51.134;6.548;2024-01-06T10:27:06;5.70;89.30
78345;DHT22;67620;51.134;6.548;2024-01-06T10:29:32;5.70;88.90
78345;DHT22;67620;51.134;6.548;2024-01-06T10:31:58;5.60;89.80
78345;DHT22;67620;51.134;6.548;2024-01-06T10:34:24;5.60;90.70
78345;DHT22;67620;51.134;6.548;2024-01-06T10:36:50;5.50;93.90
78345;DHT22;67620;51.134;6.548;2024-01-06T10:39:20;5.40;95.50
78345;DHT22;67620;51.134;6.548;2024-01-06T10:41:48;5.20;96.10
78345;DHT22;67620;51.134;6.548;2024-01-06T10:44:14;5.00;97.10
78345;DHT22;67620;51.134;6.548;2024-01-06T10:46:41;5.00;98.30
78345;DHT22;67620;51.134;6.548;2024-01-06T10:49:08;5.00;98.50
78345;DHT22;67620;51.134;6.548;2024-01-06T10:51:37;5.00;98.90
78345;DHT22;67620;51.134;6.548;2024-01-06T10:54:03;5.10;99.20
78345;DHT22;67620;51.134;6.548;2024-01-06T10:56:29;5.00;99.30
78345;DHT22;67620;51.134;6.548;2024-01-06T10:58:56;4.80;99.30
78345;DHT22;67620;51.134;6.548;2024-01-06T11:01:23;4.90;99.60
78345;DHT22;67620;51.134;6.548;2024-01-06T11:03:54;4.70;99.60
78345;DHT22;67620;51.134;6.548;2024-01-06T11:06:20;4.70;99.60
78345;DHT22;67620;51.134;6.548;2024-01-06T11:11:17;4.70;99.90
78345;DHT22;67620;51.134;6.548;2024-01-06T11:13:43;4.70;99.80
78345;DHT22;67620;51.134;6.548;2024-01-06T11:16:10;4.60;99.80
78345;DHT22;67620;51.134;6.548;2024-01-06T11:18:39;4.60;99.90
78345;DHT22;67620;51.134;6.548;2024-01-06T11:21:18;4.60;99.90
78345;DHT22;67620;51.134;6.548;2024-01-06T11:24:25;4.50;99.90
78345;DHT22;67620;51.134;6.548;2024-01-06T11:26:55;4.60;99.90
78345;DHT22;67620;51.134;6.548;2024-01-06T11:29:21;4.40;99.90
78345;DHT22;67620;51.134;6.548;2024-01-06T11:32:26;4.50;99.90
78345;DHT22;67620;51.134;6.548;2024-01-06T11:34:53;4.40;99.90
78345;DHT22;67620;51.134;6.548;2024-01-06T11:37:24;4.40;99.90
78345;DHT22;67620;51.134;6.548;2024-01-06T11:39:50;4.40;99.90
78345;DHT22;67620;51.134;6.548;2024-01-06T11:42:16;4.50;99.90
78345;DHT22;67620;51.134;6.548;2024-01-06T11:44:49;4.50;99.90
78345;DHT22;67620;51.134;6.548;2024-01-06T11:47:15;4.40;99.90
78345;DHT22;67620;51.134;6.548;2024-01-06T11:49:44;4.40;99.90
78345;DHT22;67620;51.134;6.548;2024-01-06T11:52:11;4.20;99.90
78345;DHT22;67620;51.134;6.548;2024-01-06T11:54:38;4.10;99.90
78345;DHT22;67620;51.134;6.548;2024-01-06T11:57:03;4.00;99.90
78345;DHT22;67620;51.134;6.548;2024-01-06T11:59:29;4.20;99.90
78345;DHT22;67620;51.134;6.548;2024-01-06T12:01:55;4.20;99.90
78345;DHT22;67620;51.134;6.548;2024-01-06T12:04:21;4.20;99.90
78345;DHT22;67620;51.134;6.548;2024-01-06T12:06:47;4.10;99.90
78345;DHT22;67620;51.134;6.548;2024-01-06T12:09:13;3.90;99.90
78345;DHT22;67620;51.134;6.548;2024-01-06T12:11:42;4.00;99.90
78345;DHT22;67620;51.134;6.548;2024-01-06T12:14:10;4.00;99.90
78345;DHT22;67620;51.134;6.548;2024-01-06T12:16:36;4.00;99.90
78345;DHT22;67620;51.134;6.548;2024-01-06T12:19:02;4.00;99.90
78345;DHT22;67620;51.134;6.548;2024-01-06T12:21:29;4.00;99.90
78345;DHT22;67620;51.134;6.548;2024-01-06T12:24:12;3.90;99.90
78345;DHT22;67620;51.134;6.548;2024-01-06T12:26:41;3.90;99.90
78345;DHT22;67620;51.134;6.548;2024-01-06T12:29:07;3.90;99.90
78345;DHT22;67620;51.134;6.548;2024-01-06T12:31:32;3.90;99.90
78345;DHT22;67620;51.134;6.548;2024-01-06T12:33:59;3.90;99.90
78345;DHT22;67620;51.134;6.548;2024-01-06T12:36:24;3.80;99.90
78345;DHT22;67620;51.134;6.548;2024-01-06T12:38:50;3.80;99.90
78345;DHT22;67620;51.134;6.548;2024-01-06T12:41:16;3.90;99.90
78345;DHT22;67620;51.134;6.548;2024-01-06T12:43:41;3.90;99.90
78345;DHT22;67620;51.134;6.548;2024-01-06T12:46:07;3.90;99.90
78345;DHT22;67620;51.134;6.548;2024-01-06T12:48:32;4.00;99.90
78345;DHT22;67620;51.134;6.548;2024-01-06T12:50:58;3.80;99.90
78345;DHT22;67620;51.134;6.548;2024-01-06T12:53:23;3.90;99.90
78345;DHT22;67620;51.134;6.548;2024-01-06T12:55:49;3.80;99.90
78345;DHT22;67620;51.134;6.548;2024-01-06T12:58:14;3.70;99.90
78345;DHT22;67620;51.134;6.548;2024-01-06T13:00:40;3.70;99.90
78345;DHT22;67620;51.134;6.548;2024-01-06T13:03:06;3.80;99.90
78345;DHT22;67620;51.134;6.548;2024-01-06T13:05:31;3.70;99.90
78345;DHT22;67620;51.134;6.548;2024-01-06T13:07:57;3.70;99.90
78345;DHT22;67620;51.134;6.548;2024-01-06T13:10:23;3.60;99.90
78345;DHT22;67620;51.134;6.548;2024-01-06T13:12:48;3.70;99.90
78345;DHT22;67620;51.134;6.548;2024-01-06T13:15:14;3.60;99.90
78345;DHT22;67620;51.134;6.548;2024-01-06T13:17:39;3.60;99.90
78345;DHT22;67620;51.134;6.548;2024-01-06T13:20:05;3.50;99.90
78345;DHT22;67620;51.134;6.548;2024-01-06T13:22:33;3.60;99.90
78345;DHT22;67620;51.134;6.548;2024-01-06T13:24:59;3.60;99.90
78345;DHT22;67620;51.134;6.548;2024-01-06T13:27:25;3.70;99.90
78345;DHT22;67620;51.134;6.548;2024-01-06T13:29:53;3.70;99.90
78345;DHT22;67620;51.134;6.548;2024-01-06T13:32:18;3.80;99.90
78345;DHT22;67620;51.134;6.548;2024-01-06T13:34:44;3.70;99.90
78345;DHT22;67620;51.134;6.548;2024-01-06T13:37:10;3.60;99.80
78345;DHT22;67620;51.134;6.548;2024-01-06T13:39:36;3.60;99.90
78345;DHT22;67620;51.134;6.548;2024-01-06T13:42:01;3.60;99.90
78345;DHT22;67620;51.134;6.548;2024-01-06T13:44:29;3.50;99.80
78345;DHT22;67620;51.134;6.548;2024-01-06T13:46:54;3.40;99.60
78345;DHT22;67620;51.134;6.548;2024-01-06T13:49:21;3.50;99.70
78345;DHT22;67620;51.134;6.548;2024-01-06T13:51:46;3.40;99.80
78345;DHT22;67620;51.134;6.548;2024-01-06T13:54:12;3.40;99.70
78345;DHT22;67620;51.134;6.548;2024-01-06T13:56:37;3.50;99.70
78345;DHT22;67620;51.134;6.548;2024-01-06T13:59:03;3.40;99.80
78345;DHT22;67620;51.134;6.548;2024-01-06T14:01:29;3.30;99.90
78345;DHT22;67620;51.134;6.548;2024-01-06T14:03:55;3.40;99.90
78345;DHT22;67620;51.134;6.548;2024-01-06T14:06:27;3.50;99.90
78345;DHT22;67620;51.134;6.548;2024-01-06T14:08:56;3.40;99.90
78345;DHT22;67620;51.134;6.548;2024-01-06T14:11:21;3.30;99.80
78345;DHT22;67620;51.134;6.548;2024-01-06T14:13:47;3.30;99.60
78345;DHT22;67620;51.134;6.548;2024-01-06T14:16:15;3.20;99.40
78345;DHT22;67620;51.134;6.548;2024-01-06T14:18:40;3.30;99.50
78345;DHT22;67620;51.134;6.548;2024-01-06T14:21:08;3.30;99.60
78345;DHT22;67620;51.134;6.548;2024-01-06T14:23:34;3.20;99.60
78345;DHT22;67620;51.134;6.548;2024-01-06T14:25:59;3.20;99.30
78345;DHT22;67620;51.134;6.548;2024-01-06T14:28:25;3.10;99.10
78345;DHT22;67620;51.134;6.548;2024-01-06T14:30:51;3.20;99.40
78345;DHT22;67620;51.134;6.548;2024-01-06T14:33:16;3.30;99.40
78345;DHT22;67620;51.134;6.548;2024-01-06T14:35:44;3.20;99.20
78345;DHT22;67620;51.134;6.548;2024-01-06T14:38:11;3.10;98.90
78345;DHT22;67620;51.134;6.548;2024-01-06T14:40:37;3.10;99.20
78345;DHT22;67620;51.134;6.548;2024-01-06T14:43:02;3.10;99.20
78345;DHT22;67620;51.134;6.548;2024-01-06T14:45:29;3.10;98.90
78345;DHT22;67620;51.134;6.548;2024-01-06T14:47:55;3.20;99.10
78345;DHT22;67620;51.134;6.548;2024-01-06T14:50:20;3.10;98.90
78345;DHT22;67620;51.134;6.548;2024-01-06T14:52:46;3.10;98.70
78345;DHT22;67620;51.134;6.548;2024-01-06T14:55:12;3.20;98.70
78345;DHT22;67620;51.134;6.548;2024-01-06T14:57:37;3.10;98.80
78345;DHT22;67620;51.134;6.548;2024-01-06T15:00:05;3.20;98.50
78345;DHT22;67620;51.134;6.548;2024-01-06T15:02:30;3.10;98.60
78345;DHT22;67620;51.134;6.548;2024-01-06T15:04:56;2.90;97.80
78345;DHT22;67620;51.134;6.548;2024-01-06T15:07:23;2.90;98.50
78345;DHT22;67620;51.134;6.548;2024-01-06T15:09:48;2.90;98.50
78345;DHT22;67620;51.134;6.548;2024-01-06T15:12:14;2.90;98.20
78345;DHT22;67620;51.134;6.548;2024-01-06T15:14:40;2.90;98.40
78345;DHT22;67620;51.134;6.548;2024-01-06T15:17:05;3.00;98.50
78345;DHT22;67620;51.134;6.548;2024-01-06T15:19:32;2.90;98.50
78345;DHT22;67620;51.134;6.548;2024-01-06T15:21:58;3.00;98.70
78345;DHT22;67620;51.134;6.548;2024-01-06T15:24:24;3.00;98.70
78345;DHT22;67620;51.134;6.548;2024-01-06T15:26:50;3.00;98.40
78345;DHT22;67620;51.134;6.548;2024-01-06T15:29:17;2.90;98.20
78345;DHT22;67620;51.134;6.548;2024-01-06T15:31:42;3.00;98.20
78345;DHT22;67620;51.134;6.548;2024-01-06T15:34:08;2.90;98.00
78345;DHT22;67620;51.134;6.548;2024-01-06T15:36:33;2.90;97.50
78345;DHT22;67620;51.134;6.548;2024-01-06T15:38:59;2.80;97.70
78345;DHT22;67620;51.134;6.548;2024-01-06T15:41:24;2.90;97.60